Star Planet — V2OE9 — position and weather

sailwx.info

Track history (hours):
 
Tides and Currents Weather Stations Pressure Air Temp Water Temp Dewpoint Dewpoint Depression Visibility Wind Speed Wind Dir Waves Ship Positions

Star Planet

Last reported at 2017-Sep-26 04:44 UTC. Time now 2017-Oct-18 09:43 UTC.
Position N 34°36' E 134°54'.
Warning: this ship's position is 22 days out of date.

Length 132 m; draft 6.7 m.

Type: Ship (hazmat cat D). MMSI: 304427000.

Date/timePositionNaut miles runAvg speedWind from/ knotsBaromVisibWave heightAir tempDewpointWater temp
2017-Sep-26 04:44N 34°36' E 134°54'415.8
2017-Sep-26 04:29N 34°37' E 134°58'714.8
2017-Sep-26 04:00N 34°36' E 135°06'713.7
2017-Sep-26 03:30N 34°37' E 135°15'4 8.3
2017-Sep-26 03:00N 34°41' E 135°16'0 0.0
2017-Sep-26 02:27N 34°41' E 135°16'0 0.0
2017-Sep-26 01:57N 34°41' E 135°16'0 0.0
2017-Sep-26 01:27N 34°41' E 135°16'0 0.0
2017-Sep-26 00:57N 34°41' E 135°16'0 0.0
2017-Sep-26 00:27N 34°41' E 135°16'0 0.0
2017-Sep-25 23:57N 34°41' E 135°16'0 0.0
2017-Sep-25 23:27N 34°41' E 135°16'0 0.0
2017-Sep-25 22:45N 34°41' E 135°16'0 0.0
2017-Sep-25 22:27N 34°41' E 135°16'0 0.3
2017-Sep-25 22:00N 34°41' E 135°16'3 7.0
2017-Sep-25 21:31N 34°37' E 135°16'612.9
2017-Sep-25 21:00N 34°31' E 135°12'712.9
2017-Sep-25 20:30N 34°26' E 135°07'612.9
2017-Sep-25 20:00N 34°21' E 135°02'611.8
2017-Sep-25 19:30N 34°16' E 134°59'612.1
2017-Sep-25 19:00N 34°10' E 134°59'221 6.1
2017-Sep-24 06:45N 34°53' E 139°23'3 8.6
2017-Sep-24 06:27N 34°54' E 139°25'4 8.7
2017-Sep-24 06:00N 34°57' E 139°29'4 8.2
2017-Sep-24 05:30N 34°59' E 139°33'4 8.8
2017-Sep-24 05:00N 35°02' E 139°37'510.4
2017-Sep-24 04:30N 35°06' E 139°42'510.9
2017-Sep-24 04:00N 35°10' E 139°45'611.6
2017-Sep-24 03:30N 35°16' E 139°46'611.6
2017-Sep-24 03:00N 35°21' E 139°42'3 6.1
2017-Sep-24 02:30N 35°24' E 139°41'0 0.0
2017-Sep-24 01:58N 35°24' E 139°41'0 0.0
2017-Sep-24 01:28N 35°24' E 139°41'0 0.0
2017-Sep-24 00:58N 35°24' E 139°41'0 0.0
2017-Sep-24 00:28N 35°24' E 139°41'0 0.0
2017-Sep-23 23:58N 35°24' E 139°41'0 0.0
2017-Sep-23 23:28N 35°24' E 139°41'0 0.0
2017-Sep-23 22:58N 35°24' E 139°41'0 0.0
2017-Sep-23 22:31N 35°24' E 139°41'1 1.6
2017-Sep-23 22:01N 35°24' E 139°42'713.7
2017-Sep-23 21:30N 35°28' E 139°48'611.3
2017-Sep-23 21:01N 35°34' E 139°49'4 5.7
2017-Sep-23 20:23N 35°36' E 139°46'0 0.0
2017-Sep-23 19:59N 35°36' E 139°46'  
2017-Sep-19 05:26N 34°36' E 134°55'4 9.8
2017-Sep-19 05:00N 34°38' E 134°60'3 6.7
2017-Sep-19 04:31N 34°36' E 135°03'5 9.4
2017-Sep-19 04:01N 34°36' E 135°09'4 8.0
2017-Sep-19 03:30N 34°36' E 135°14'4 8.0
2017-Sep-19 03:00N 34°40' E 135°15'1 1.9
2017-Sep-19 02:29N 34°41' E 135°16'0 0.0
2017-Sep-19 01:59N 34°41' E 135°16'0 0.0
2017-Sep-19 01:29N 34°41' E 135°16'0 0.0
2017-Sep-19 00:59N 34°41' E 135°16'0 0.0
2017-Sep-19 00:29N 34°41' E 135°16'0 0.0
2017-Sep-18 23:53N 34°41' E 135°16'0 0.0
2017-Sep-18 23:29N 34°41' E 135°16'0 0.0
2017-Sep-18 22:59N 34°41' E 135°16'0 0.0
2017-Sep-18 22:30N 34°41' E 135°16'2 3.8
2017-Sep-18 22:00N 34°39' E 135°16'4 7.7
2017-Sep-18 21:31N 34°35' E 135°15'510.6
2017-Sep-18 21:00N 34°31' E 135°11'510.3
2017-Sep-18 20:31N 34°27' E 135°07'710.5
2017-Sep-18 19:50N 34°21' E 135°02'411.8
2017-Sep-18 19:30N 34°18' E 134°59'611.9
2017-Sep-18 19:01N 34°12' E 134°59'221 6.0
2017-Sep-17 06:08N 34°52' E 139°23'214.7
2017-Sep-17 06:00N 34°54' E 139°24'714.4
2017-Sep-17 05:30N 34°58' E 139°31'713.8
2017-Sep-17 05:00N 35°03' E 139°37'714.7
2017-Sep-17 04:30N 35°08' E 139°43'714.2
2017-Sep-17 04:00N 35°15' E 139°46'713.0
2017-Sep-17 03:30N 35°21' E 139°42'4 7.0
2017-Sep-17 03:00N 35°24' E 139°41'0 0.0
2017-Sep-17 02:30N 35°24' E 139°41'0 0.0
2017-Sep-17 02:00N 35°24' E 139°41'0 0.0
2017-Sep-17 01:30N 35°24' E 139°41'0 0.0
2017-Sep-17 01:00N 35°24' E 139°41'0 0.0
2017-Sep-17 00:30N 35°24' E 139°41'0 0.0
2017-Sep-17 00:00N 35°24' E 139°41'0 0.0
2017-Sep-16 23:30N 35°24' E 139°41'0 0.0
2017-Sep-16 23:00N 35°24' E 139°41'0 0.0
2017-Sep-16 22:30N 35°24' E 139°41'1 1.5
2017-Sep-16 22:00N 35°24' E 139°42'714.4
2017-Sep-16 21:30N 35°28' E 139°49'611.7
2017-Sep-16 21:00N 35°34' E 139°49'3 6.7
2017-Sep-16 20:30N 35°36' E 139°46'0 0.0
2017-Sep-16 20:00N 35°36' E 139°46'0 0.0
2017-Sep-16 19:30N 35°36' E 139°46'0 0.0
2017-Sep-16 19:00N 35°36' E 139°46'0 0.0
2017-Sep-16 18:30N 35°36' E 139°46'0 0.0
2017-Sep-16 18:00N 35°36' E 139°46'0 0.0
2017-Sep-16 17:30N 35°36' E 139°46'0 0.0
2017-Sep-16 17:00N 35°36' E 139°46'0 0.0
2017-Sep-16 16:30N 35°36' E 139°46'0 0.0
2017-Sep-16 16:00N 35°36' E 139°46'0 0.0
2017-Sep-16 15:30N 35°36' E 139°46'0 0.0
2017-Sep-16 15:00N 35°36' E 139°46'0 0.0
2017-Sep-16 14:30N 35°36' E 139°46'0 0.0
2017-Sep-16 14:00N 35°36' E 139°46'0 0.0
2017-Sep-16 13:30N 35°36' E 139°46'0 0.0
2017-Sep-16 13:00N 35°36' E 139°46'0 0.0
2017-Sep-16 12:30N 35°36' E 139°46'0 0.0
2017-Sep-16 12:00N 35°36' E 139°46'0 0.0
2017-Sep-16 11:30N 35°36' E 139°46'0 0.0
2017-Sep-16 11:00N 35°36' E 139°46'0 0.0
2017-Sep-16 10:30N 35°36' E 139°46'0 0.0
2017-Sep-16 10:00N 35°36' E 139°46'0 0.0
2017-Sep-16 09:30N 35°36' E 139°46'2 4.5
2017-Sep-16 09:00N 35°35' E 139°48'5 9.7
2017-Sep-16 08:31N 35°31' E 139°52'611.3
2017-Sep-16 08:01N 35°26' E 139°49'611.5
2017-Sep-16 07:31N 35°21' E 139°45'510.6
2017-Sep-16 07:01N 35°16' E 139°46'611.8
2017-Sep-16 06:30N 35°10' E 139°46'612.9
2017-Sep-16 06:00N 35°04' E 139°43'713.3
2017-Sep-16 05:30N 34°60' E 139°37'714.3
2017-Sep-16 04:59N 34°56' E 139°29'  
Track history (hours):
 
Tides and Currents Weather Stations Pressure Air Temp Water Temp Dewpoint Dewpoint Depression Visibility Wind Speed Wind Dir Waves Ship Positions

Star Planet

Last reported at 2017-Sep-26 04:44 UTC. Time now 2017-Oct-18 09:43 UTC.
Position N 34°36' E 134°54'.
Warning: this ship's position is 22 days out of date.

Length 132 m; draft 6.7 m.

Type: Ship (hazmat cat D). MMSI: 304427000.

Date/timePositionNaut miles runAvg speedWind from/ knotsBaromVisibWave heightAir tempDewpointWater temp
2017-Sep-26 04:44N 34°36' E 134°54'415.8
2017-Sep-26 04:29N 34°37' E 134°58'714.8
2017-Sep-26 04:00N 34°36' E 135°06'713.7
2017-Sep-26 03:30N 34°37' E 135°15'4 8.3
2017-Sep-26 03:00N 34°41' E 135°16'0 0.0
2017-Sep-26 02:27N 34°41' E 135°16'0 0.0
2017-Sep-26 01:57N 34°41' E 135°16'0 0.0
2017-Sep-26 01:27N 34°41' E 135°16'0 0.0
2017-Sep-26 00:57N 34°41' E 135°16'0 0.0
2017-Sep-26 00:27N 34°41' E 135°16'0 0.0
2017-Sep-25 23:57N 34°41' E 135°16'0 0.0
2017-Sep-25 23:27N 34°41' E 135°16'0 0.0
2017-Sep-25 22:45N 34°41' E 135°16'0 0.0
2017-Sep-25 22:27N 34°41' E 135°16'0 0.3
2017-Sep-25 22:00N 34°41' E 135°16'3 7.0
2017-Sep-25 21:31N 34°37' E 135°16'612.9
2017-Sep-25 21:00N 34°31' E 135°12'712.9
2017-Sep-25 20:30N 34°26' E 135°07'612.9
2017-Sep-25 20:00N 34°21' E 135°02'611.8
2017-Sep-25 19:30N 34°16' E 134°59'612.1
2017-Sep-25 19:00N 34°10' E 134°59'221 6.1
2017-Sep-24 06:45N 34°53' E 139°23'3 8.6
2017-Sep-24 06:27N 34°54' E 139°25'4 8.7
2017-Sep-24 06:00N 34°57' E 139°29'4 8.2
2017-Sep-24 05:30N 34°59' E 139°33'4 8.8
2017-Sep-24 05:00N 35°02' E 139°37'510.4
2017-Sep-24 04:30N 35°06' E 139°42'510.9
2017-Sep-24 04:00N 35°10' E 139°45'611.6
2017-Sep-24 03:30N 35°16' E 139°46'611.6
2017-Sep-24 03:00N 35°21' E 139°42'3 6.1
2017-Sep-24 02:30N 35°24' E 139°41'0 0.0
2017-Sep-24 01:58N 35°24' E 139°41'0 0.0
2017-Sep-24 01:28N 35°24' E 139°41'0 0.0
2017-Sep-24 00:58N 35°24' E 139°41'0 0.0
2017-Sep-24 00:28N 35°24' E 139°41'0 0.0
2017-Sep-23 23:58N 35°24' E 139°41'0 0.0
2017-Sep-23 23:28N 35°24' E 139°41'0 0.0
2017-Sep-23 22:58N 35°24' E 139°41'0 0.0
2017-Sep-23 22:31N 35°24' E 139°41'1 1.6
2017-Sep-23 22:01N 35°24' E 139°42'713.7
2017-Sep-23 21:30N 35°28' E 139°48'611.3
2017-Sep-23 21:01N 35°34' E 139°49'4 5.7
2017-Sep-23 20:23N 35°36' E 139°46'0 0.0
2017-Sep-23 19:59N 35°36' E 139°46'  
2017-Sep-19 05:26N 34°36' E 134°55'4 9.8
2017-Sep-19 05:00N 34°38' E 134°60'3 6.7
2017-Sep-19 04:31N 34°36' E 135°03'5 9.4
2017-Sep-19 04:01N 34°36' E 135°09'4 8.0
2017-Sep-19 03:30N 34°36' E 135°14'4 8.0
2017-Sep-19 03:00N 34°40' E 135°15'1 1.9
2017-Sep-19 02:29N 34°41' E 135°16'0 0.0
2017-Sep-19 01:59N 34°41' E 135°16'0 0.0
2017-Sep-19 01:29N 34°41' E 135°16'0 0.0
2017-Sep-19 00:59N 34°41' E 135°16'0 0.0
2017-Sep-19 00:29N 34°41' E 135°16'0 0.0
2017-Sep-18 23:53N 34°41' E 135°16'0 0.0
2017-Sep-18 23:29N 34°41' E 135°16'0 0.0
2017-Sep-18 22:59N 34°41' E 135°16'0 0.0
2017-Sep-18 22:30N 34°41' E 135°16'2 3.8
2017-Sep-18 22:00N 34°39' E 135°16'4 7.7
2017-Sep-18 21:31N 34°35' E 135°15'510.6
2017-Sep-18 21:00N 34°31' E 135°11'510.3
2017-Sep-18 20:31N 34°27' E 135°07'710.5
2017-Sep-18 19:50N 34°21' E 135°02'411.8
2017-Sep-18 19:30N 34°18' E 134°59'611.9
2017-Sep-18 19:01N 34°12' E 134°59'221 6.0
2017-Sep-17 06:08N 34°52' E 139°23'214.7
2017-Sep-17 06:00N 34°54' E 139°24'714.4
2017-Sep-17 05:30N 34°58' E 139°31'713.8
2017-Sep-17 05:00N 35°03' E 139°37'714.7
2017-Sep-17 04:30N 35°08' E 139°43'714.2
2017-Sep-17 04:00N 35°15' E 139°46'713.0
2017-Sep-17 03:30N 35°21' E 139°42'4 7.0
2017-Sep-17 03:00N 35°24' E 139°41'0 0.0
2017-Sep-17 02:30N 35°24' E 139°41'0 0.0
2017-Sep-17 02:00N 35°24' E 139°41'0 0.0
2017-Sep-17 01:30N 35°24' E 139°41'0 0.0
2017-Sep-17 01:00N 35°24' E 139°41'0 0.0
2017-Sep-17 00:30N 35°24' E 139°41'0 0.0
2017-Sep-17 00:00N 35°24' E 139°41'0 0.0
2017-Sep-16 23:30N 35°24' E 139°41'0 0.0
2017-Sep-16 23:00N 35°24' E 139°41'0 0.0
2017-Sep-16 22:30N 35°24' E 139°41'1 1.5
2017-Sep-16 22:00N 35°24' E 139°42'714.4
2017-Sep-16 21:30N 35°28' E 139°49'611.7
2017-Sep-16 21:00N 35°34' E 139°49'3 6.7
2017-Sep-16 20:30N 35°36' E 139°46'0 0.0
2017-Sep-16 20:00N 35°36' E 139°46'0 0.0
2017-Sep-16 19:30N 35°36' E 139°46'0 0.0
2017-Sep-16 19:00N 35°36' E 139°46'0 0.0
2017-Sep-16 18:30N 35°36' E 139°46'0 0.0
2017-Sep-16 18:00N 35°36' E 139°46'0 0.0
2017-Sep-16 17:30N 35°36' E 139°46'0 0.0
2017-Sep-16 17:00N 35°36' E 139°46'0 0.0
2017-Sep-16 16:30N 35°36' E 139°46'0 0.0
2017-Sep-16 16:00N 35°36' E 139°46'0 0.0
2017-Sep-16 15:30N 35°36' E 139°46'0 0.0
2017-Sep-16 15:00N 35°36' E 139°46'0 0.0
2017-Sep-16 14:30N 35°36' E 139°46'0 0.0
2017-Sep-16 14:00N 35°36' E 139°46'0 0.0
2017-Sep-16 13:30N 35°36' E 139°46'0 0.0
2017-Sep-16 13:00N 35°36' E 139°46'0 0.0
2017-Sep-16 12:30N 35°36' E 139°46'0 0.0
2017-Sep-16 12:00N 35°36' E 139°46'0 0.0
2017-Sep-16 11:30N 35°36' E 139°46'0 0.0
2017-Sep-16 11:00N 35°36' E 139°46'0 0.0
2017-Sep-16 10:30N 35°36' E 139°46'0 0.0
2017-Sep-16 10:00N 35°36' E 139°46'0 0.0
2017-Sep-16 09:30N 35°36' E 139°46'2 4.5
2017-Sep-16 09:00N 35°35' E 139°48'5 9.7
2017-Sep-16 08:31N 35°31' E 139°52'611.3
2017-Sep-16 08:01N 35°26' E 139°49'611.5
2017-Sep-16 07:31N 35°21' E 139°45'510.6
2017-Sep-16 07:01N 35°16' E 139°46'611.8
2017-Sep-16 06:30N 35°10' E 139°46'612.9
2017-Sep-16 06:00N 35°04' E 139°43'713.3
2017-Sep-16 05:30N 34°60' E 139°37'714.3
2017-Sep-16 04:59N 34°56' E 139°29'  

Dump ship's entire track history